sensor_id;sensor_type;location;lat;lon;timestamp;temperature;humidity
62339;DHT22;48368;53.406;6.214;2022-11-13T00:02:10;5.70;99.90
62339;DHT22;48368;53.406;6.214;2022-11-13T00:04:36;5.70;99.90
62339;DHT22;48368;53.406;6.214;2022-11-13T00:07:01;5.80;99.90
62339;DHT22;48368;53.406;6.214;2022-11-13T00:09:27;5.90;99.90
62339;DHT22;48368;53.406;6.214;2022-11-13T00:11:52;5.90;99.90
62339;DHT22;48368;53.406;6.214;2022-11-13T00:14:18;5.90;99.90
62339;DHT22;48368;53.406;6.214;2022-11-13T00:16:44;6.00;99.90
62339;DHT22;48368;53.406;6.214;2022-11-13T00:19:09;6.00;99.90
62339;DHT22;48368;53.406;6.214;2022-11-13T00:21:35;6.00;99.90
62339;DHT22;48368;53.406;6.214;2022-11-13T00:24:01;6.00;99.90
62339;DHT22;48368;53.406;6.214;2022-11-13T00:26:28;6.00;99.90
62339;DHT22;48368;53.406;6.214;2022-11-13T00:28:56;6.10;99.90
62339;DHT22;48368;53.406;6.214;2022-11-13T00:31:22;6.20;99.90
62339;DHT22;48368;53.406;6.214;2022-11-13T00:33:48;6.10;99.90
62339;DHT22;48368;53.406;6.214;2022-11-13T00:36:16;6.10;99.90
62339;DHT22;48368;53.406;6.214;2022-11-13T00:38:43;6.10;99.90
62339;DHT22;48368;53.406;6.214;2022-11-13T00:41:08;6.20;99.90
62339;DHT22;48368;53.406;6.214;2022-11-13T00:43:34;6.20;99.90
62339;DHT22;48368;53.406;6.214;2022-11-13T00:46:00;6.20;99.90
62339;DHT22;48368;53.406;6.214;2022-11-13T00:48:26;6.20;99.90
62339;DHT22;48368;53.406;6.214;2022-11-13T00:50:52;6.30;99.90
62339;DHT22;48368;53.406;6.214;2022-11-13T00:53:18;6.30;99.90
62339;DHT22;48368;53.406;6.214;2022-11-13T00:55:44;6.30;99.90
62339;DHT22;48368;53.406;6.214;2022-11-13T00:58:13;6.30;99.90
62339;DHT22;48368;53.406;6.214;2022-11-13T01:00:42;6.30;99.90
62339;DHT22;48368;53.406;6.214;2022-11-13T01:03:08;6.40;99.90
62339;DHT22;48368;53.406;6.214;2022-11-13T01:05:35;6.30;99.90
62339;DHT22;48368;53.406;6.214;2022-11-13T01:08:01;6.30;99.90
62339;DHT22;48368;53.406;6.214;2022-11-13T01:10:27;6.30;99.90
62339;DHT22;48368;53.406;6.214;2022-11-13T01:12:53;6.40;99.90
62339;DHT22;48368;53.406;6.214;2022-11-13T01:15:19;6.40;99.90
62339;DHT22;48368;53.406;6.214;2022-11-13T01:17:44;6.30;99.90
62339;DHT22;48368;53.406;6.214;2022-11-13T01:20:10;6.40;99.90
62339;DHT22;48368;53.406;6.214;2022-11-13T01:22:36;6.40;99.90
62339;DHT22;48368;53.406;6.214;2022-11-13T01:25:02;6.40;99.90
62339;DHT22;48368;53.406;6.214;2022-11-13T01:27:28;6.40;99.90
62339;DHT22;48368;53.406;6.214;2022-11-13T01:29:54;6.40;99.90
62339;DHT22;48368;53.406;6.214;2022-11-13T01:32:19;6.40;99.90
62339;DHT22;48368;53.406;6.214;2022-11-13T01:34:45;6.50;99.90
62339;DHT22;48368;53.406;6.214;2022-11-13T01:37:11;6.50;99.90
62339;DHT22;48368;53.406;6.214;2022-11-13T01:39:36;6.50;99.90
62339;DHT22;48368;53.406;6.214;2022-11-13T01:42:02;6.50;99.90
62339;DHT22;48368;53.406;6.214;2022-11-13T01:44:52;6.50;99.90
62339;DHT22;48368;53.406;6.214;2022-11-13T01:47:19;6.50;99.90
62339;DHT22;48368;53.406;6.214;2022-11-13T01:49:46;6.50;99.90
62339;DHT22;48368;53.406;6.214;2022-11-13T01:54:47;6.60;99.90
62339;DHT22;48368;53.406;6.214;2022-11-13T01:57:15;6.60;99.90
62339;DHT22;48368;53.406;6.214;2022-11-13T01:59:45;6.60;99.90
62339;DHT22;48368;53.406;6.214;2022-11-13T02:02:13;6.50;99.90
62339;DHT22;48368;53.406;6.214;2022-11-13T02:04:38;6.60;99.90
62339;DHT22;48368;53.406;6.214;2022-11-13T02:07:10;6.60;99.90
62339;DHT22;48368;53.406;6.214;2022-11-13T02:09:41;6.60;99.90
62339;DHT22;48368;53.406;6.214;2022-11-13T02:12:10;6.50;99.90
62339;DHT22;48368;53.406;6.214;2022-11-13T02:14:42;6.60;99.90
62339;DHT22;48368;53.406;6.214;2022-11-13T02:17:12;6.60;99.90
62339;DHT22;48368;53.406;6.214;2022-11-13T02:19:42;6.50;99.90
62339;DHT22;48368;53.406;6.214;2022-11-13T02:22:20;6.50;99.90
62339;DHT22;48368;53.406;6.214;2022-11-13T02:24:49;6.50;99.90
62339;DHT22;48368;53.406;6.214;2022-11-13T02:30:31;6.50;99.90
62339;DHT22;48368;53.406;6.214;2022-11-13T02:32:58;6.50;99.90
62339;DHT22;48368;53.406;6.214;2022-11-13T02:35:30;6.50;99.90
62339;DHT22;48368;53.406;6.214;2022-11-13T02:37:58;6.50;99.90
62339;DHT22;48368;53.406;6.214;2022-11-13T02:40:25;6.50;99.90
62339;DHT22;48368;53.406;6.214;2022-11-13T02:42:50;6.60;99.90
62339;DHT22;48368;53.406;6.214;2022-11-13T02:45:16;6.60;99.90
62339;DHT22;48368;53.406;6.214;2022-11-13T02:47:42;6.60;99.90
62339;DHT22;48368;53.406;6.214;2022-11-13T02:50:09;6.70;99.90
62339;DHT22;48368;53.406;6.214;2022-11-13T02:52:35;6.70;99.90
62339;DHT22;48368;53.406;6.214;2022-11-13T02:55:01;6.80;99.90
62339;DHT22;48368;53.406;6.214;2022-11-13T02:57:26;6.80;99.90
62339;DHT22;48368;53.406;6.214;2022-11-13T02:59:52;6.80;99.90
62339;DHT22;48368;53.406;6.214;2022-11-13T03:02:18;6.90;99.90
62339;DHT22;48368;53.406;6.214;2022-11-13T03:04:43;6.90;99.90
62339;DHT22;48368;53.406;6.214;2022-11-13T03:07:11;6.90;99.90
62339;DHT22;48368;53.406;6.214;2022-11-13T03:09:38;7.00;99.90
62339;DHT22;48368;53.406;6.214;2022-11-13T03:12:04;7.00;99.90
62339;DHT22;48368;53.406;6.214;2022-11-13T03:14:29;7.00;99.90
62339;DHT22;48368;53.406;6.214;2022-11-13T03:16:55;7.00;99.90
62339;DHT22;48368;53.406;6.214;2022-11-13T03:19:21;7.00;99.90
62339;DHT22;48368;53.406;6.214;2022-11-13T03:21:47;7.00;99.90
62339;DHT22;48368;53.406;6.214;2022-11-13T03:24:12;7.00;99.90
62339;DHT22;48368;53.406;6.214;2022-11-13T03:26:38;7.00;99.90
62339;DHT22;48368;53.406;6.214;2022-11-13T03:29:03;7.10;99.90
62339;DHT22;48368;53.406;6.214;2022-11-13T03:31:29;7.00;99.90
62339;DHT22;48368;53.406;6.214;2022-11-13T03:33:54;7.00;99.90
62339;DHT22;48368;53.406;6.214;2022-11-13T03:36:20;7.00;99.90
62339;DHT22;48368;53.406;6.214;2022-11-13T03:38:46;7.00;99.90
62339;DHT22;48368;53.406;6.214;2022-11-13T03:41:12;7.10;99.90
62339;DHT22;48368;53.406;6.214;2022-11-13T03:43:41;7.00;99.90
62339;DHT22;48368;53.406;6.214;2022-11-13T03:46:06;7.00;99.90
62339;DHT22;48368;53.406;6.214;2022-11-13T03:48:32;7.10;99.90
62339;DHT22;48368;53.406;6.214;2022-11-13T03:50:58;7.00;99.90
62339;DHT22;48368;53.406;6.214;2022-11-13T03:53:24;7.10;99.90
62339;DHT22;48368;53.406;6.214;2022-11-13T03:55:50;7.00;99.90
62339;DHT22;48368;53.406;6.214;2022-11-13T03:58:16;7.10;99.90
62339;DHT22;48368;53.406;6.214;2022-11-13T04:00:43;7.10;99.90
62339;DHT22;48368;53.406;6.214;2022-11-13T04:03:09;7.10;99.90
62339;DHT22;48368;53.406;6.214;2022-11-13T04:05:35;7.10;99.90
62339;DHT22;48368;53.406;6.214;2022-11-13T04:08:01;7.10;99.90
62339;DHT22;48368;53.406;6.214;2022-11-13T04:10:27;7.10;99.90
62339;DHT22;48368;53.406;6.214;2022-11-13T04:12:53;7.10;99.90
62339;DHT22;48368;53.406;6.214;2022-11-13T04:15:18;7.10;99.90
62339;DHT22;48368;53.406;6.214;2022-11-13T04:17:44;7.10;99.90
62339;DHT22;48368;53.406;6.214;2022-11-13T04:20:10;7.10;99.90
62339;DHT22;48368;53.406;6.214;2022-11-13T04:22:36;7.20;99.90
62339;DHT22;48368;53.406;6.214;2022-11-13T04:25:02;7.20;99.90
62339;DHT22;48368;53.406;6.214;2022-11-13T04:27:28;7.20;99.90
62339;DHT22;48368;53.406;6.214;2022-11-13T04:29:53;7.20;99.90
62339;DHT22;48368;53.406;6.214;2022-11-13T04:32:19;7.20;99.90
62339;DHT22;48368;53.406;6.214;2022-11-13T04:34:45;7.30;99.90
62339;DHT22;48368;53.406;6.214;2022-11-13T04:37:10;7.20;99.90
62339;DHT22;48368;53.406;6.214;2022-11-13T04:39:36;7.30;99.90
62339;DHT22;48368;53.406;6.214;2022-11-13T04:42:01;7.30;99.90
62339;DHT22;48368;53.406;6.214;2022-11-13T04:44:45;7.30;99.90
62339;DHT22;48368;53.406;6.214;2022-11-13T04:47:11;7.30;99.90
62339;DHT22;48368;53.406;6.214;2022-11-13T04:49:37;7.30;99.90
62339;DHT22;48368;53.406;6.214;2022-11-13T04:52:03;7.30;99.90
62339;DHT22;48368;53.406;6.214;2022-11-13T04:54:28;7.30;99.90
62339;DHT22;48368;53.406;6.214;2022-11-13T04:56:54;7.40;99.90
62339;DHT22;48368;53.406;6.214;2022-11-13T04:59:20;7.40;99.90
62339;DHT22;48368;53.406;6.214;2022-11-13T05:01:46;7.40;99.90
62339;DHT22;48368;53.406;6.214;2022-11-13T05:04:13;7.40;99.90
62339;DHT22;48368;53.406;6.214;2022-11-13T05:06:39;7.40;99.90
62339;DHT22;48368;53.406;6.214;2022-11-13T05:09:04;7.40;99.90
62339;DHT22;48368;53.406;6.214;2022-11-13T05:11:30;7.40;99.90
62339;DHT22;48368;53.406;6.214;2022-11-13T05:13:55;7.40;99.90
62339;DHT22;48368;53.406;6.214;2022-11-13T05:16:21;7.40;99.90
62339;DHT22;48368;53.406;6.214;2022-11-13T05:18:47;7.40;99.90
62339;DHT22;48368;53.406;6.214;2022-11-13T05:21:12;7.40;99.90
62339;DHT22;48368;53.406;6.214;2022-11-13T05:23:38;7.40;99.90
62339;DHT22;48368;53.406;6.214;2022-11-13T05:26:06;7.40;99.90
62339;DHT22;48368;53.406;6.214;2022-11-13T05:28:32;7.40;99.90
62339;DHT22;48368;53.406;6.214;2022-11-13T05:31:03;7.30;99.90
62339;DHT22;48368;53.406;6.214;2022-11-13T05:33:29;7.40;99.90
62339;DHT22;48368;53.406;6.214;2022-11-13T05:36:03;7.40;99.90
62339;DHT22;48368;53.406;6.214;2022-11-13T05:38:29;7.40;99.90
62339;DHT22;48368;53.406;6.214;2022-11-13T05:41:03;7.30;99.90
62339;DHT22;48368;53.406;6.214;2022-11-13T05:43:30;7.40;99.90
62339;DHT22;48368;53.406;6.214;2022-11-13T05:46:03;7.30;99.90
62339;DHT22;48368;53.406;6.214;2022-11-13T05:48:30;7.40;99.90
62339;DHT22;48368;53.406;6.214;2022-11-13T05:51:04;7.30;99.90
62339;DHT22;48368;53.406;6.214;2022-11-13T05:53:31;7.30;99.90
62339;DHT22;48368;53.406;6.214;2022-11-13T05:56:06;7.30;99.90
62339;DHT22;48368;53.406;6.214;2022-11-13T05:58:31;7.30;99.90
62339;DHT22;48368;53.406;6.214;2022-11-13T06:01:12;7.30;99.90
62339;DHT22;48368;53.406;6.214;2022-11-13T06:03:39;7.30;99.90
62339;DHT22;48368;53.406;6.214;2022-11-13T06:06:06;7.20;99.90
62339;DHT22;48368;53.406;6.214;2022-11-13T06:08:33;7.30;99.90
62339;DHT22;48368;53.406;6.214;2022-11-13T06:11:04;7.20;99.90
62339;DHT22;48368;53.406;6.214;2022-11-13T06:13:30;7.20;99.90
62339;DHT22;48368;53.406;6.214;2022-11-13T06:16:01;7.20;99.90
62339;DHT22;48368;53.406;6.214;2022-11-13T06:18:27;7.20;99.90
62339;DHT22;48368;53.406;6.214;2022-11-13T06:20:53;7.20;99.90
62339;DHT22;48368;53.406;6.214;2022-11-13T06:23:19;7.10;99.90
62339;DHT22;48368;53.406;6.214;2022-11-13T06:25:44;7.10;99.90
62339;DHT22;48368;53.406;6.214;2022-11-13T06:28:10;7.10;99.90
62339;DHT22;48368;53.406;6.214;2022-11-13T06:30:36;7.10;99.90
62339;DHT22;48368;53.406;6.214;2022-11-13T06:33:01;7.00;99.90
62339;DHT22;48368;53.406;6.214;2022-11-13T06:35:27;7.00;99.90
62339;DHT22;48368;53.406;6.214;2022-11-13T06:37:55;7.00;99.90
62339;DHT22;48368;53.406;6.214;2022-11-13T06:40:21;6.90;99.90
62339;DHT22;48368;53.406;6.214;2022-11-13T06:42:47;7.00;99.90
62339;DHT22;48368;53.406;6.214;2022-11-13T06:45:12;7.00;99.90
62339;DHT22;48368;53.406;6.214;2022-11-13T06:47:38;6.90;99.90
62339;DHT22;48368;53.406;6.214;2022-11-13T06:50:04;6.90;99.90
62339;DHT22;48368;53.406;6.214;2022-11-13T06:52:31;6.90;99.90
62339;DHT22;48368;53.406;6.214;2022-11-13T06:54:56;6.90;99.90
62339;DHT22;48368;53.406;6.214;2022-11-13T06:57:22;6.80;99.90
62339;DHT22;48368;53.406;6.214;2022-11-13T06:59:48;6.80;99.90
62339;DHT22;48368;53.406;6.214;2022-11-13T07:02:13;6.80;99.90
62339;DHT22;48368;53.406;6.214;2022-11-13T07:04:39;6.80;99.90
62339;DHT22;48368;53.406;6.214;2022-11-13T07:07:04;6.70;99.90
62339;DHT22;48368;53.406;6.214;2022-11-13T07:09:30;6.80;99.90
62339;DHT22;48368;53.406;6.214;2022-11-13T07:11:56;6.70;99.90
62339;DHT22;48368;53.406;6.214;2022-11-13T07:14:21;6.70;99.90
62339;DHT22;48368;53.406;6.214;2022-11-13T07:16:47;6.70;99.90
62339;DHT22;48368;53.406;6.214;2022-11-13T07:19:13;6.70;99.90
62339;DHT22;48368;53.406;6.214;2022-11-13T07:21:38;6.70;99.90
62339;DHT22;48368;53.406;6.214;2022-11-13T07:24:04;6.70;99.90
62339;DHT22;48368;53.406;6.214;2022-11-13T07:26:30;6.60;99.90
62339;DHT22;48368;53.406;6.214;2022-11-13T07:28:56;6.70;99.90
62339;DHT22;48368;53.406;6.214;2022-11-13T07:31:21;6.70;99.90
62339;DHT22;48368;53.406;6.214;2022-11-13T07:33:48;6.70;99.90
62339;DHT22;48368;53.406;6.214;2022-11-13T07:36:14;6.70;99.90
62339;DHT22;48368;53.406;6.214;2022-11-13T07:38:40;6.70;99.90
62339;DHT22;48368;53.406;6.214;2022-11-13T07:41:06;6.70;99.90
62339;DHT22;48368;53.406;6.214;2022-11-13T07:43:32;6.70;99.90
62339;DHT22;48368;53.406;6.214;2022-11-13T07:45:58;6.70;99.90
62339;DHT22;48368;53.406;6.214;2022-11-13T07:48:24;6.70;99.90
62339;DHT22;48368;53.406;6.214;2022-11-13T07:50:52;6.70;99.90
62339;DHT22;48368;53.406;6.214;2022-11-13T07:53:19;6.80;99.90
62339;DHT22;48368;53.406;6.214;2022-11-13T07:55:45;6.80;99.90
62339;DHT22;48368;53.406;6.214;2022-11-13T07:58:12;6.80;99.90
62339;DHT22;48368;53.406;6.214;2022-11-13T08:00:38;6.90;99.90
62339;DHT22;48368;53.406;6.214;2022-11-13T08:03:12;6.90;99.90
62339;DHT22;48368;53.406;6.214;2022-11-13T08:05:38;7.00;99.90
62339;DHT22;48368;53.406;6.214;2022-11-13T08:08:04;7.10;99.90
62339;DHT22;48368;53.406;6.214;2022-11-13T08:10:30;7.10;99.90
62339;DHT22;48368;53.406;6.214;2022-11-13T08:13:01;7.20;99.90
62339;DHT22;48368;53.406;6.214;2022-11-13T08:15:28;7.30;99.90
62339;DHT22;48368;53.406;6.214;2022-11-13T08:17:58;7.30;99.90
62339;DHT22;48368;53.406;6.214;2022-11-13T08:20:26;7.40;99.90
62339;DHT22;48368;53.406;6.214;2022-11-13T08:22:54;7.50;99.90
62339;DHT22;48368;53.406;6.214;2022-11-13T08:25:20;7.50;99.90
62339;DHT22;48368;53.406;6.214;2022-11-13T08:27:46;7.70;99.90
62339;DHT22;48368;53.406;6.214;2022-11-13T08:30:12;7.70;99.90
62339;DHT22;48368;53.406;6.214;2022-11-13T08:32:38;7.80;99.90
62339;DHT22;48368;53.406;6.214;2022-11-13T08:35:04;7.90;99.90
62339;DHT22;48368;53.406;6.214;2022-11-13T08:37:31;8.00;99.90
62339;DHT22;48368;53.406;6.214;2022-11-13T08:39:57;8.10;99.90
62339;DHT22;48368;53.406;6.214;2022-11-13T08:42:23;8.20;99.90
62339;DHT22;48368;53.406;6.214;2022-11-13T08:44:48;8.30;99.90
62339;DHT22;48368;53.406;6.214;2022-11-13T08:47:14;8.40;99.90
62339;DHT22;48368;53.406;6.214;2022-11-13T08:49:40;8.50;99.90
62339;DHT22;48368;53.406;6.214;2022-11-13T08:52:05;8.50;99.90
62339;DHT22;48368;53.406;6.214;2022-11-13T08:54:31;8.60;99.90
62339;DHT22;48368;53.406;6.214;2022-11-13T08:56:57;8.70;99.90
62339;DHT22;48368;53.406;6.214;2022-11-13T08:59:22;8.80;99.90
62339;DHT22;48368;53.406;6.214;2022-11-13T09:01:48;8.90;99.90
62339;DHT22;48368;53.406;6.214;2022-11-13T09:04:14;9.00;99.90
62339;DHT22;48368;53.406;6.214;2022-11-13T09:06:40;9.10;99.90
62339;DHT22;48368;53.406;6.214;2022-11-13T09:09:06;9.30;99.90
62339;DHT22;48368;53.406;6.214;2022-11-13T09:11:32;9.30;99.90
62339;DHT22;48368;53.406;6.214;2022-11-13T09:13:58;9.40;99.90
62339;DHT22;48368;53.406;6.214;2022-11-13T09:16:24;9.50;99.90
62339;DHT22;48368;53.406;6.214;2022-11-13T09:18:50;9.70;99.90
62339;DHT22;48368;53.406;6.214;2022-11-13T09:21:17;9.80;99.90
62339;DHT22;48368;53.406;6.214;2022-11-13T09:23:42;10.00;99.90
62339;DHT22;48368;53.406;6.214;2022-11-13T09:26:08;10.00;99.90
62339;DHT22;48368;53.406;6.214;2022-11-13T09:28:34;10.10;99.90
62339;DHT22;48368;53.406;6.214;2022-11-13T09:31:04;10.20;99.90
62339;DHT22;48368;53.406;6.214;2022-11-13T09:33:30;10.10;99.90
62339;DHT22;48368;53.406;6.214;2022-11-13T09:35:55;10.20;99.90
62339;DHT22;48368;53.406;6.214;2022-11-13T09:38:21;10.30;99.90
62339;DHT22;48368;53.406;6.214;2022-11-13T09:43:23;10.60;99.90
62339;DHT22;48368;53.406;6.214;2022-11-13T09:45:53;10.60;99.90
62339;DHT22;48368;53.406;6.214;2022-11-13T09:51:14;10.80;99.90
62339;DHT22;48368;53.406;6.214;2022-11-13T09:53:40;11.00;99.90
62339;DHT22;48368;53.406;6.214;2022-11-13T09:59:24;11.20;99.90
62339;DHT22;48368;53.406;6.214;2022-11-13T10:02:07;11.30;99.90
62339;DHT22;48368;53.406;6.214;2022-11-13T10:10:31;11.40;99.90
62339;DHT22;48368;53.406;6.214;2022-11-13T10:13:01;11.50;99.90
62339;DHT22;48368;53.406;6.214;2022-11-13T10:15:28;11.60;99.90
62339;DHT22;48368;53.406;6.214;2022-11-13T10:18:05;11.60;99.90
62339;DHT22;48368;53.406;6.214;2022-11-13T10:20:40;11.80;99.90
62339;DHT22;48368;53.406;6.214;2022-11-13T10:23:19;11.90;99.90
62339;DHT22;48368;53.406;6.214;2022-11-13T10:25:46;12.00;99.90
62339;DHT22;48368;53.406;6.214;2022-11-13T10:28:21;12.10;99.90
62339;DHT22;48368;53.406;6.214;2022-11-13T10:30:48;12.30;99.90
62339;DHT22;48368;53.406;6.214;2022-11-13T10:33:18;12.40;99.90
62339;DHT22;48368;53.406;6.214;2022-11-13T10:36:01;12.50;99.90
62339;DHT22;48368;53.406;6.214;2022-11-13T10:38:47;12.60;99.90
62339;DHT22;48368;53.406;6.214;2022-11-13T10:41:19;12.70;99.90
62339;DHT22;48368;53.406;6.214;2022-11-13T10:46:42;12.70;99.90
62339;DHT22;48368;53.406;6.214;2022-11-13T10:49:18;12.80;99.90
62339;DHT22;48368;53.406;6.214;2022-11-13T10:51:44;12.80;99.90
62339;DHT22;48368;53.406;6.214;2022-11-13T10:54:22;12.90;99.90
62339;DHT22;48368;53.406;6.214;2022-11-13T10:57:15;13.00;99.90
62339;DHT22;48368;53.406;6.214;2022-11-13T10:59:43;13.10;99.90
62339;DHT22;48368;53.406;6.214;2022-11-13T11:02:20;13.00;99.90
62339;DHT22;48368;53.406;6.214;2022-11-13T11:04:47;13.00;99.90
62339;DHT22;48368;53.406;6.214;2022-11-13T11:07:16;12.80;99.90
62339;DHT22;48368;53.406;6.214;2022-11-13T11:09:43;12.90;99.90
62339;DHT22;48368;53.406;6.214;2022-11-13T11:12:12;12.90;99.90
62339;DHT22;48368;53.406;6.214;2022-11-13T11:17:20;12.60;99.90
62339;DHT22;48368;53.406;6.214;2022-11-13T11:19:54;12.50;99.90
62339;DHT22;48368;53.406;6.214;2022-11-13T11:22:23;12.60;99.90
62339;DHT22;48368;53.406;6.214;2022-11-13T11:25:08;12.70;99.90
62339;DHT22;48368;53.406;6.214;2022-11-13T11:30:21;12.70;99.90
62339;DHT22;48368;53.406;6.214;2022-11-13T11:38:17;12.70;99.90
62339;DHT22;48368;53.406;6.214;2022-11-13T11:40:49;12.60;99.90
62339;DHT22;48368;53.406;6.214;2022-11-13T11:45:54;12.80;99.90
62339;DHT22;48368;53.406;6.214;2022-11-13T11:48:30;12.90;99.90
62339;DHT22;48368;53.406;6.214;2022-11-13T11:53:48;12.90;99.90
62339;DHT22;48368;53.406;6.214;2022-11-13T11:56:58;12.90;99.90
62339;DHT22;48368;53.406;6.214;2022-11-13T12:13:14;12.80;99.90
62339;DHT22;48368;53.406;6.214;2022-11-13T12:15:51;12.80;99.90
62339;DHT22;48368;53.406;6.214;2022-11-13T12:18:30;12.70;99.90
62339;DHT22;48368;53.406;6.214;2022-11-13T12:21:23;12.60;99.90
62339;DHT22;48368;53.406;6.214;2022-11-13T12:26:52;12.60;99.90
62339;DHT22;48368;53.406;6.214;2022-11-13T12:29:59;12.60;99.90
62339;DHT22;48368;53.406;6.214;2022-11-13T12:35:19;12.70;99.90
62339;DHT22;48368;53.406;6.214;2022-11-13T12:37:47;12.80;99.90
62339;DHT22;48368;53.406;6.214;2022-11-13T12:40:26;12.80;99.90
62339;DHT22;48368;53.406;6.214;2022-11-13T12:43:28;12.90;99.90
62339;DHT22;48368;53.406;6.214;2022-11-13T12:45:57;12.90;99.90
62339;DHT22;48368;53.406;6.214;2022-11-13T12:48:33;12.80;99.90
62339;DHT22;48368;53.406;6.214;2022-11-13T12:51:03;13.00;99.90
62339;DHT22;48368;53.406;6.214;2022-11-13T12:53:41;12.90;99.90
62339;DHT22;48368;53.406;6.214;2022-11-13T13:02:31;12.70;99.90
62339;DHT22;48368;53.406;6.214;2022-11-13T13:17:48;12.80;99.90
62339;DHT22;48368;53.406;6.214;2022-11-13T13:22:39;12.80;99.90
62339;DHT22;48368;53.406;6.214;2022-11-13T13:25:29;12.80;99.90
62339;DHT22;48368;53.406;6.214;2022-11-13T13:28:00;12.70;99.90
62339;DHT22;48368;53.406;6.214;2022-11-13T13:30:27;12.70;99.90
62339;DHT22;48368;53.406;6.214;2022-11-13T13:33:15;12.70;99.90
62339;DHT22;48368;53.406;6.214;2022-11-13T13:35:53;12.70;99.90
62339;DHT22;48368;53.406;6.214;2022-11-13T13:41:11;12.50;99.90
62339;DHT22;48368;53.406;6.214;2022-11-13T13:43:48;12.60;99.90
62339;DHT22;48368;53.406;6.214;2022-11-13T13:46:19;12.60;99.90
62339;DHT22;48368;53.406;6.214;2022-11-13T13:48:48;12.60;99.90
62339;DHT22;48368;53.406;6.214;2022-11-13T13:54:05;12.50;99.90
62339;DHT22;48368;53.406;6.214;2022-11-13T13:56:32;12.70;99.90
62339;DHT22;48368;53.406;6.214;2022-11-13T13:58:58;12.60;99.90
62339;DHT22;48368;53.406;6.214;2022-11-13T14:01:30;12.70;99.90
62339;DHT22;48368;53.406;6.214;2022-11-13T14:04:12;12.70;99.90
62339;DHT22;48368;53.406;6.214;2022-11-13T14:06:50;12.70;99.90
62339;DHT22;48368;53.406;6.214;2022-11-13T14:09:18;12.70;99.90
62339;DHT22;48368;53.406;6.214;2022-11-13T14:11:45;12.70;99.90
62339;DHT22;48368;53.406;6.214;2022-11-13T14:14:20;12.70;99.90
62339;DHT22;48368;53.406;6.214;2022-11-13T14:16:52;12.60;99.90
62339;DHT22;48368;53.406;6.214;2022-11-13T14:19:18;12.60;99.90
62339;DHT22;48368;53.406;6.214;2022-11-13T14:21:45;12.70;99.90
62339;DHT22;48368;53.406;6.214;2022-11-13T14:26:51;12.50;99.90
62339;DHT22;48368;53.406;6.214;2022-11-13T14:31:51;12.50;99.90
62339;DHT22;48368;53.406;6.214;2022-11-13T14:34:19;12.50;99.90
62339;DHT22;48368;53.406;6.214;2022-11-13T14:36:46;12.40;99.90
62339;DHT22;48368;53.406;6.214;2022-11-13T14:39:31;12.40;99.90
62339;DHT22;48368;53.406;6.214;2022-11-13T14:41:59;12.30;99.90
62339;DHT22;48368;53.406;6.214;2022-11-13T14:44:31;12.30;99.90
62339;DHT22;48368;53.406;6.214;2022-11-13T14:47:05;12.20;99.90
62339;DHT22;48368;53.406;6.214;2022-11-13T14:49:44;12.20;99.90
62339;DHT22;48368;53.406;6.214;2022-11-13T14:52:19;12.10;99.90
62339;DHT22;48368;53.406;6.214;2022-11-13T14:54:45;12.10;99.90
62339;DHT22;48368;53.406;6.214;2022-11-13T14:57:13;12.10;99.90
62339;DHT22;48368;53.406;6.214;2022-11-13T14:59:40;12.00;99.90
62339;DHT22;48368;53.406;6.214;2022-11-13T15:02:12;12.00;99.90
62339;DHT22;48368;53.406;6.214;2022-11-13T15:04:38;12.00;99.90
62339;DHT22;48368;53.406;6.214;2022-11-13T15:07:27;11.90;99.90
62339;DHT22;48368;53.406;6.214;2022-11-13T15:09:54;11.90;99.90
62339;DHT22;48368;53.406;6.214;2022-11-13T15:12:20;11.80;99.90
62339;DHT22;48368;53.406;6.214;2022-11-13T15:14:46;11.70;99.90
62339;DHT22;48368;53.406;6.214;2022-11-13T15:17:15;11.70;99.90
62339;DHT22;48368;53.406;6.214;2022-11-13T15:19:42;11.60;99.90
62339;DHT22;48368;53.406;6.214;2022-11-13T15:22:10;11.70;99.90
62339;DHT22;48368;53.406;6.214;2022-11-13T15:24:35;11.60;99.90
62339;DHT22;48368;53.406;6.214;2022-11-13T15:27:01;11.50;99.90
62339;DHT22;48368;53.406;6.214;2022-11-13T15:29:27;11.50;99.90
62339;DHT22;48368;53.406;6.214;2022-11-13T15:31:52;11.40;99.90
62339;DHT22;48368;53.406;6.214;2022-11-13T15:34:19;11.30;99.90
62339;DHT22;48368;53.406;6.214;2022-11-13T15:36:44;11.30;99.90
62339;DHT22;48368;53.406;6.214;2022-11-13T15:39:11;11.30;99.90
62339;DHT22;48368;53.406;6.214;2022-11-13T15:41:37;11.20;99.90
62339;DHT22;48368;53.406;6.214;2022-11-13T15:44:09;11.10;99.90
62339;DHT22;48368;53.406;6.214;2022-11-13T15:46:35;11.10;99.90
62339;DHT22;48368;53.406;6.214;2022-11-13T15:49:01;11.00;99.90
62339;DHT22;48368;53.406;6.214;2022-11-13T15:54:15;11.00;99.90
62339;DHT22;48368;53.406;6.214;2022-11-13T15:56:43;10.80;99.90
62339;DHT22;48368;53.406;6.214;2022-11-13T15:59:11;10.80;99.90
62339;DHT22;48368;53.406;6.214;2022-11-13T16:01:38;10.70;99.90
62339;DHT22;48368;53.406;6.214;2022-11-13T16:04:04;10.70;99.90
62339;DHT22;48368;53.406;6.214;2022-11-13T16:06:31;10.60;99.90
62339;DHT22;48368;53.406;6.214;2022-11-13T16:08:59;10.60;99.90
62339;DHT22;48368;53.406;6.214;2022-11-13T16:11:25;10.60;99.90
62339;DHT22;48368;53.406;6.214;2022-11-13T16:13:50;10.60;99.90
62339;DHT22;48368;53.406;6.214;2022-11-13T16:16:21;10.50;99.90
62339;DHT22;48368;53.406;6.214;2022-11-13T16:18:48;10.50;99.90
62339;DHT22;48368;53.406;6.214;2022-11-13T16:21:16;10.40;99.90
62339;DHT22;48368;53.406;6.214;2022-11-13T16:23:42;10.30;99.90
62339;DHT22;48368;53.406;6.214;2022-11-13T16:26:13;10.20;99.90
62339;DHT22;48368;53.406;6.214;2022-11-13T16:28:39;10.20;99.90
62339;DHT22;48368;53.406;6.214;2022-11-13T16:31:05;10.10;99.90
62339;DHT22;48368;53.406;6.214;2022-11-13T16:33:30;10.10;99.90
62339;DHT22;48368;53.406;6.214;2022-11-13T16:35:56;10.10;99.90
62339;DHT22;48368;53.406;6.214;2022-11-13T16:38:22;10.00;99.90
62339;DHT22;48368;53.406;6.214;2022-11-13T16:40:47;9.90;99.90
62339;DHT22;48368;53.406;6.214;2022-11-13T16:43:13;9.90;99.90
62339;DHT22;48368;53.406;6.214;2022-11-13T16:45:39;9.80;99.90
62339;DHT22;48368;53.406;6.214;2022-11-13T16:48:07;9.80;99.90
62339;DHT22;48368;53.406;6.214;2022-11-13T16:50:36;9.70;99.90
62339;DHT22;48368;53.406;6.214;2022-11-13T16:53:04;9.70;99.90
62339;DHT22;48368;53.406;6.214;2022-11-13T16:55:30;9.70;99.90
62339;DHT22;48368;53.406;6.214;2022-11-13T16:57:56;9.60;99.90
62339;DHT22;48368;53.406;6.214;2022-11-13T17:00:21;9.60;99.90
62339;DHT22;48368;53.406;6.214;2022-11-13T17:02:50;9.50;99.90
62339;DHT22;48368;53.406;6.214;2022-11-13T17:05:17;9.50;99.90
62339;DHT22;48368;53.406;6.214;2022-11-13T17:07:44;9.50;99.90
62339;DHT22;48368;53.406;6.214;2022-11-13T17:10:15;9.40;99.90
62339;DHT22;48368;53.406;6.214;2022-11-13T17:12:41;9.40;99.90
62339;DHT22;48368;53.406;6.214;2022-11-13T17:15:07;9.30;99.90
62339;DHT22;48368;53.406;6.214;2022-11-13T17:17:33;9.40;99.90
62339;DHT22;48368;53.406;6.214;2022-11-13T17:19:59;9.30;99.90
62339;DHT22;48368;53.406;6.214;2022-11-13T17:22:25;9.20;99.90